createdAt,value
2023-01-27T00:00:30.412Z,15.80
2023-01-27T00:01:53.244Z,16.20
2023-01-27T00:02:56.182Z,16.00
2023-01-27T00:04:00.191Z,16.00
2023-01-27T00:05:03.800Z,15.60
2023-01-27T00:06:12.133Z,14.90
2023-01-27T00:07:15.375Z,15.50
2023-01-27T00:08:20.070Z,15.20
2023-01-27T00:09:23.552Z,15.00
2023-01-27T00:10:27.316Z,13.90
2023-01-27T00:11:48.763Z,15.40
2023-01-27T00:13:10.609Z,13.90
2023-01-27T00:14:13.602Z,16.00
2023-01-27T00:15:17.102Z,18.10
2023-01-27T00:16:20.258Z,18.40
2023-01-27T00:17:23.254Z,16.40
2023-01-27T00:18:26.467Z,16.40
2023-01-27T00:19:29.297Z,15.20
2023-01-27T00:20:51.325Z,14.60
2023-01-27T00:22:15.195Z,15.30
2023-01-27T00:23:43.800Z,15.20
2023-01-27T00:24:46.796Z,16.20
2023-01-27T00:25:51.020Z,15.00
2023-01-27T00:26:53.948Z,15.10
2023-01-27T00:27:56.894Z,15.20
2023-01-27T00:29:01.868Z,15.40
2023-01-27T00:30:08.303Z,15.50
2023-01-27T00:31:32.671Z,15.10
2023-01-27T00:32:54.296Z,15.30
2023-01-27T00:34:09.934Z,14.10
2023-01-27T00:35:16.771Z,13.80
2023-01-27T00:36:20.156Z,15.00
2023-01-27T00:37:23.371Z,14.20
2023-01-27T00:38:31.569Z,13.70
2023-01-27T00:39:34.774Z,14.60
2023-01-27T00:40:39.544Z,14.50
2023-01-27T00:41:42.512Z,13.30
2023-01-27T00:42:45.660Z,14.90
2023-01-27T00:43:55.198Z,13.50
2023-01-27T00:45:18.823Z,13.10
2023-01-27T00:46:23.943Z,13.00
2023-01-27T00:47:27.102Z,13.20
2023-01-27T00:48:29.953Z,14.00
2023-01-27T00:49:33.495Z,13.60
2023-01-27T00:50:38.999Z,14.50
2023-01-27T00:51:44.873Z,13.30
2023-01-27T00:52:48.023Z,12.40
2023-01-27T00:53:52.207Z,13.50
2023-01-27T00:54:55.029Z,13.50
2023-01-27T00:55:58.354Z,12.70
2023-01-27T00:57:01.348Z,12.60
2023-01-27T00:58:04.440Z,13.40
2023-01-27T00:59:07.425Z,12.10
2023-01-27T01:00:12.560Z,13.20
2023-01-27T01:01:16.990Z,13.50
2023-01-27T01:02:19.903Z,13.50
2023-01-27T01:03:24.686Z,12.80
2023-01-27T01:04:27.806Z,13.50
2023-01-27T01:05:30.735Z,14.10
2023-01-27T01:06:34.589Z,14.30
2023-01-27T01:07:40.002Z,15.50
2023-01-27T01:08:44.819Z,14.90
2023-01-27T01:09:47.974Z,15.80
2023-01-27T01:10:51.561Z,15.20
2023-01-27T01:11:54.645Z,16.10
2023-01-27T01:12:57.885Z,16.00
2023-01-27T01:14:00.794Z,17.00
2023-01-27T01:15:03.950Z,15.80
2023-01-27T01:16:10.529Z,15.30
2023-01-27T01:17:14.199Z,15.30
2023-01-27T01:18:17.256Z,17.60
2023-01-27T01:19:20.082Z,16.20
2023-01-27T01:20:24.219Z,17.40
2023-01-27T01:21:27.092Z,17.10
2023-01-27T01:22:31.159Z,16.50
2023-01-27T01:23:37.962Z,16.10
2023-01-27T01:24:40.820Z,15.80
2023-01-27T01:25:43.650Z,15.70
2023-01-27T01:26:46.706Z,15.90
2023-01-27T01:27:50.268Z,15.30
2023-01-27T01:28:53.229Z,16.10
2023-01-27T01:29:56.216Z,15.20
2023-01-27T01:31:07.254Z,15.40
2023-01-27T01:32:11.116Z,15.60
2023-01-27T01:33:14.366Z,16.20
2023-01-27T01:34:17.603Z,15.50
2023-01-27T01:35:21.634Z,15.20
2023-01-27T01:36:25.532Z,14.90
2023-01-27T01:37:28.716Z,14.50
2023-01-27T01:38:31.893Z,15.20
2023-01-27T01:39:34.961Z,15.60
2023-01-27T01:40:41.779Z,14.70
2023-01-27T01:41:45.577Z,15.00
2023-01-27T01:42:57.254Z,15.10
2023-01-27T01:44:25.146Z,15.10
2023-01-27T01:45:31.384Z,15.60
2023-01-27T01:46:34.253Z,14.60
2023-01-27T01:47:38.421Z,15.70
2023-01-27T01:48:47.789Z,15.40
2023-01-27T01:49:51.149Z,15.90
2023-01-27T01:51:01.932Z,16.20
2023-01-27T01:52:13.832Z,15.50
2023-01-27T01:53:21.765Z,15.80
2023-01-27T01:54:33.639Z,15.60
2023-01-27T01:55:40.173Z,15.60
2023-01-27T01:57:05.374Z,15.90
2023-01-27T01:58:13.203Z,15.40
2023-01-27T01:59:30.875Z,15.90
2023-01-27T02:00:35.045Z,16.60
2023-01-27T02:01:41.169Z,16.90
2023-01-27T02:02:46.105Z,15.60
2023-01-27T02:03:54.560Z,16.80
2023-01-27T02:05:11.799Z,16.60
2023-01-27T02:06:17.614Z,17.20
2023-01-27T02:07:46.012Z,17.40
2023-01-27T02:08:52.118Z,17.10
2023-01-27T02:10:02.384Z,16.40
2023-01-27T02:11:08.760Z,15.50
2023-01-27T02:12:13.585Z,15.30
2023-01-27T02:13:18.070Z,16.20
2023-01-27T02:14:21.073Z,16.90
2023-01-27T02:15:26.988Z,16.00
2023-01-27T02:16:30.468Z,16.80
2023-01-27T02:17:35.975Z,16.40
2023-01-27T02:18:41.896Z,16.00
2023-01-27T02:20:26.846Z,16.90
2023-01-27T02:21:31.107Z,15.40
2023-01-27T02:22:54.479Z,16.10
2023-01-27T02:24:10.953Z,16.70
2023-01-27T02:25:28.780Z,15.70
2023-01-27T02:26:54.655Z,16.20
2023-01-27T02:27:57.551Z,16.90
2023-01-27T02:29:08.098Z,17.60
2023-01-27T02:30:13.335Z,17.90
